createdAt,value
2023-03-22T00:00:35.684Z,98833.80
2023-03-22T00:03:27.705Z,98827.00
2023-03-22T00:06:04.873Z,98827.40
2023-03-22T00:08:41.782Z,98820.60
2023-03-22T00:11:18.999Z,98818.60
2023-03-22T00:13:55.370Z,98817.40
2023-03-22T00:16:31.910Z,98819.20
2023-03-22T00:19:08.417Z,98814.80
2023-03-22T00:21:44.876Z,98811.20
2023-03-22T00:24:21.833Z,98813.80
2023-03-22T00:26:58.835Z,98814.80
2023-03-22T00:29:35.084Z,98814.00
2023-03-22T00:32:12.216Z,98810.20
2023-03-22T00:34:49.086Z,98807.00
2023-03-22T00:37:27.972Z,98803.20
2023-03-22T00:40:04.760Z,98800.00
2023-03-22T00:42:42.441Z,98794.20
2023-03-22T00:45:19.385Z,98795.60
2023-03-22T00:47:56.014Z,98798.20
2023-03-22T00:50:32.703Z,98793.20
2023-03-22T00:53:09.066Z,98794.80
2023-03-22T00:55:45.625Z,98795.80
2023-03-22T00:58:22.195Z,98799.40
2023-03-22T01:00:58.597Z,98786.60
2023-03-22T01:03:38.886Z,98778.60
2023-03-22T01:06:16.644Z,98775.60
2023-03-22T01:08:55.310Z,98781.80
2023-03-22T01:11:31.981Z,98773.20
2023-03-22T01:14:09.787Z,98767.00
2023-03-22T01:16:46.364Z,98763.80
2023-03-22T01:19:23.409Z,98765.40
2023-03-22T01:22:00.634Z,98767.20
2023-03-22T01:24:37.421Z,98769.80
2023-03-22T01:27:13.816Z,98768.80
2023-03-22T01:29:50.792Z,98765.60
2023-03-22T01:32:27.116Z,98758.40
2023-03-22T01:35:03.379Z,98765.80
2023-03-22T01:37:39.818Z,98763.00
2023-03-22T01:40:19.749Z,98764.60
2023-03-22T01:42:57.609Z,98761.00
2023-03-22T01:45:46.064Z,98754.60
2023-03-22T01:48:31.425Z,98747.80
2023-03-22T01:51:15.019Z,98745.00
2023-03-22T01:54:36.534Z,98742.00
2023-03-22T01:57:19.749Z,98738.40
2023-03-22T01:59:56.335Z,98733.00
2023-03-22T02:02:52.603Z,98729.80
2023-03-22T02:05:38.182Z,98731.40
2023-03-22T02:08:15.246Z,98727.80
2023-03-22T02:11:22.875Z,98724.80
2023-03-22T02:14:34.099Z,98717.00
2023-03-22T02:17:51.455Z,98713.20
2023-03-22T02:21:31.282Z,98706.40
2023-03-22T02:25:24.730Z,98706.40
2023-03-22T02:28:36.551Z,98711.80
2023-03-22T02:31:49.928Z,98709.40
2023-03-22T02:34:57.382Z,98704.00
2023-03-22T02:38:18.770Z,98695.60
2023-03-22T02:41:04.086Z,98687.80
2023-03-22T02:43:52.661Z,98681.80
2023-03-22T02:46:40.090Z,98682.60
2023-03-22T02:49:32.238Z,98685.00
2023-03-22T02:52:17.801Z,98686.60
2023-03-22T02:55:05.878Z,98687.60
2023-03-22T02:57:54.007Z,98682.20
2023-03-22T03:00:32.407Z,98682.40
2023-03-22T03:03:15.075Z,98679.20
2023-03-22T03:05:58.778Z,98683.80
2023-03-22T03:08:36.266Z,98686.60
2023-03-22T03:11:14.219Z,98683.60
2023-03-22T03:13:52.980Z,98686.80
2023-03-22T03:16:36.821Z,98682.80
2023-03-22T03:19:27.589Z,98681.20
2023-03-22T03:22:18.793Z,98682.80
2023-03-22T03:25:03.596Z,98686.00
2023-03-22T03:27:49.931Z,98688.40
2023-03-22T03:30:39.150Z,98695.40
2023-03-22T03:33:25.174Z,98700.20
2023-03-22T03:36:08.293Z,98702.40
2023-03-22T03:38:52.210Z,98700.00
2023-03-22T03:41:33.151Z,98701.20
2023-03-22T03:44:10.543Z,98698.80
2023-03-22T03:46:49.274Z,98700.00
2023-03-22T03:49:27.405Z,98701.80
2023-03-22T03:52:05.603Z,98701.60
2023-03-22T03:54:42.832Z,98697.80
2023-03-22T03:57:23.874Z,98701.80
2023-03-22T04:00:00.154Z,98700.20
2023-03-22T04:02:55.047Z,98701.80
2023-03-22T04:05:56.179Z,98706.00
2023-03-22T04:08:33.029Z,98709.60
2023-03-22T04:11:10.404Z,98710.20
2023-03-22T04:13:48.317Z,98707.80
2023-03-22T04:16:26.465Z,98704.60
2023-03-22T04:19:03.192Z,98706.20
2023-03-22T04:21:39.533Z,98709.80
2023-03-22T04:24:17.206Z,98705.00
2023-03-22T04:26:54.927Z,98702.40
2023-03-22T04:29:36.476Z,98704.80
2023-03-22T04:32:27.220Z,98703.40
2023-03-22T04:35:05.966Z,98705.60
2023-03-22T04:37:43.142Z,98708.00
2023-03-22T04:40:26.664Z,98705.20
2023-03-22T04:43:13.720Z,98704.80
2023-03-22T04:45:58.537Z,98710.80
2023-03-22T04:48:42.202Z,98715.20
2023-03-22T04:51:20.065Z,98712.40
2023-03-22T04:54:43.259Z,98712.60
2023-03-22T04:57:19.940Z,98717.00
2023-03-22T04:59:57.471Z,98717.20
2023-03-22T05:02:33.869Z,98723.20
2023-03-22T05:05:12.178Z,98722.20
2023-03-22T05:07:49.865Z,98719.20
2023-03-22T05:10:26.118Z,98720.60
2023-03-22T05:13:02.628Z,98717.20
2023-03-22T05:15:49.782Z,98722.80
2023-03-22T05:18:28.054Z,98724.00
2023-03-22T05:21:11.813Z,98727.40
2023-03-22T05:23:51.478Z,98726.40
2023-03-22T05:26:30.083Z,98730.40
2023-03-22T05:29:06.537Z,98729.60
2023-03-22T05:31:55.808Z,98732.40
2023-03-22T05:34:35.994Z,98736.60
2023-03-22T05:37:23.664Z,98737.40
2023-03-22T05:40:05.374Z,98736.40
2023-03-22T05:42:45.642Z,98737.20
2023-03-22T05:45:29.634Z,98741.00
2023-03-22T05:48:18.957Z,98743.60
2023-03-22T05:50:55.665Z,98746.20
2023-03-22T05:53:33.229Z,98744.00
2023-03-22T05:56:24.394Z,98739.60
2023-03-22T05:59:04.293Z,98744.20
2023-03-22T06:01:41.232Z,98738.00
2023-03-22T06:04:27.532Z,98732.80
2023-03-22T06:07:06.672Z,98740.80
2023-03-22T06:09:52.404Z,98742.60
2023-03-22T06:12:31.674Z,98740.80
2023-03-22T06:15:25.137Z,98741.20
2023-03-22T06:18:16.637Z,98750.60
2023-03-22T06:20:55.264Z,98743.40
2023-03-22T06:23:33.056Z,98737.80
2023-03-22T06:26:11.470Z,98751.60
2023-03-22T06:28:48.108Z,98756.40
2023-03-22T06:31:24.580Z,98749.20
2023-03-22T06:34:12.363Z,98744.20
2023-03-22T06:36:51.149Z,98754.00
2023-03-22T06:39:42.071Z,98752.00
2023-03-22T06:42:18.615Z,98745.40
2023-03-22T06:44:56.575Z,98747.00
2023-03-22T06:47:39.229Z,98747.20
2023-03-22T06:50:40.327Z,98753.80
2023-03-22T06:53:21.579Z,98755.20
2023-03-22T06:55:58.520Z,98751.00
2023-03-22T06:58:35.026Z,98742.00
2023-03-22T07:01:11.936Z,98746.00
2023-03-22T07:03:48.658Z,98746.00
2023-03-22T07:06:26.650Z,98742.40
2023-03-22T07:09:04.031Z,98745.80
2023-03-22T07:11:43.354Z,98749.20
2023-03-22T07:14:19.790Z,98749.20
2023-03-22T07:17:16.464Z,98747.20
2023-03-22T07:19:53.649Z,98749.60
2023-03-22T07:22:32.205Z,98742.60
2023-03-22T07:25:11.674Z,98744.40
2023-03-22T07:27:48.385Z,98746.60
2023-03-22T07:30:25.308Z,98749.20
2023-03-22T07:33:01.852Z,98752.60
2023-03-22T07:35:39.069Z,98750.20
2023-03-22T07:38:15.783Z,98751.20
2023-03-22T07:40:55.986Z,98753.20
2023-03-22T07:43:47.316Z,98746.80
2023-03-22T07:46:47.658Z,98737.00
2023-03-22T07:49:33.380Z,98736.80
2023-03-22T07:52:16.842Z,98735.80
2023-03-22T07:54:53.137Z,98736.40
2023-03-22T07:57:29.429Z,98744.60
2023-03-22T08:00:12.105Z,98749.40
2023-03-22T08:03:03.974Z,98749.00
2023-03-22T08:06:08.260Z,98747.20
2023-03-22T08:08:44.675Z,98742.00
2023-03-22T08:11:21.144Z,98742.40
2023-03-22T08:13:57.612Z,98740.20
2023-03-22T08:16:34.078Z,98738.20
2023-03-22T08:19:11.532Z,98735.00
2023-03-22T08:21:48.097Z,98735.80
2023-03-22T08:24:36.893Z,98738.60
2023-03-22T08:27:16.452Z,98736.20
2023-03-22T08:29:59.200Z,98734.40
2023-03-22T08:32:37.488Z,98734.60
2023-03-22T08:35:16.024Z,98732.20
2023-03-22T08:37:56.589Z,98731.60
2023-03-22T08:40:36.532Z,98728.80
2023-03-22T08:43:13.518Z,98732.00
2023-03-22T08:45:50.511Z,98727.60
2023-03-22T08:48:30.877Z,98724.80
2023-03-22T08:51:23.839Z,98719.80
2023-03-22T08:54:10.110Z,98724.40
2023-03-22T08:57:39.116Z,98726.40
2023-03-22T09:01:03.898Z,98730.20
2023-03-22T09:03:46.527Z,98729.20
2023-03-22T09:06:23.272Z,98730.20
2023-03-22T09:09:00.059Z,98730.20
2023-03-22T09:11:37.409Z,98731.80
2023-03-22T09:14:15.135Z,98730.60
2023-03-22T09:16:52.006Z,98727.60
2023-03-22T09:19:28.754Z,98725.80
2023-03-22T09:22:05.262Z,98723.60
2023-03-22T09:24:49.195Z,98724.60
2023-03-22T09:27:25.958Z,98718.80
2023-03-22T09:30:02.531Z,98716.80
2023-03-22T09:32:41.560Z,98719.60
2023-03-22T09:35:19.693Z,98711.40
2023-03-22T09:38:06.780Z,98708.40
2023-03-22T09:41:00.590Z,98700.20
2023-03-22T09:43:43.745Z,98693.60
2023-03-22T09:46:31.578Z,98690.80
2023-03-22T09:49:15.355Z,98687.80
2023-03-22T09:51:54.884Z,98688.20
2023-03-22T09:54:39.596Z,98688.40
2023-03-22T09:57:30.504Z,98682.60
2023-03-22T10:00:23.424Z,98687.20
2023-03-22T10:03:21.131Z,98684.00
2023-03-22T10:06:07.444Z,98680.60
2023-03-22T10:09:00.593Z,98677.40
2023-03-22T10:11:48.494Z,98674.00
2023-03-22T10:14:39.327Z,98673.60
2023-03-22T10:17:25.068Z,98671.40
2023-03-22T10:20:09.927Z,98666.40
2023-03-22T10:22:51.622Z,98669.60
2023-03-22T10:25:38.250Z,98662.60
2023-03-22T10:28:28.088Z,98664.80
2023-03-22T10:31:06.014Z,98660.20
2023-03-22T10:33:50.627Z,98657.80
2023-03-22T10:36:35.031Z,98659.80
2023-03-22T10:39:24.938Z,98658.40
2023-03-22T10:42:06.782Z,98660.00
2023-03-22T10:44:51.879Z,98656.20
2023-03-22T10:47:41.498Z,98651.00
2023-03-22T10:50:28.709Z,98649.00
2023-03-22T10:53:12.844Z,98649.20
2023-03-22T10:55:49.674Z,98645.80
2023-03-22T10:58:32.396Z,98645.20
2023-03-22T11:01:14.425Z,98644.60
2023-03-22T11:03:57.253Z,98641.20
2023-03-22T11:06:39.395Z,98640.20
2023-03-22T11:09:23.549Z,98633.60
2023-03-22T11:12:02.404Z,98632.40
2023-03-22T11:14:45.482Z,98630.00
2023-03-22T11:17:27.135Z,98632.00
2023-03-22T11:20:07.850Z,98629.60
2023-03-22T11:22:48.175Z,98617.20
2023-03-22T11:25:32.510Z,98611.60
2023-03-22T11:28:23.392Z,98617.00
2023-03-22T11:31:11.668Z,98614.60
2023-03-22T11:34:02.414Z,98620.80
2023-03-22T11:36:54.753Z,98617.00
2023-03-22T11:39:37.130Z,98618.00
2023-03-22T11:42:23.642Z,98613.60
2023-03-22T11:45:00.709Z,98605.40
2023-03-22T11:47:41.622Z,98604.40
2023-03-22T11:50:33.433Z,98599.20
2023-03-22T11:53:17.882Z,98590.20
2023-03-22T11:55:58.416Z,98593.20
2023-03-22T11:58:55.788Z,98595.20
2023-03-22T12:01:45.855Z,98591.20
2023-03-22T12:04:30.832Z,98588.60
2023-03-22T12:07:15.828Z,98585.60
2023-03-22T12:10:01.456Z,98588.00
2023-03-22T12:12:45.757Z,98581.60
2023-03-22T12:15:28.944Z,98582.40
2023-03-22T12:18:13.961Z,98580.80
2023-03-22T12:20:57.239Z,98581.20
2023-03-22T12:23:36.570Z,98580.60
2023-03-22T12:26:21.580Z,98581.20
2023-03-22T12:29:03.671Z,98576.60
2023-03-22T12:31:52.551Z,98575.00
2023-03-22T12:34:41.201Z,98573.00
2023-03-22T12:37:28.019Z,98567.60
2023-03-22T12:40:19.535Z,98563.60
2023-03-22T12:43:11.808Z,98563.40
2023-03-22T12:45:54.632Z,98557.80
2023-03-22T12:48:40.873Z,98552.80
2023-03-22T12:51:18.839Z,98548.00
2023-03-22T12:53:59.979Z,98554.40
2023-03-22T12:56:44.744Z,98554.80
2023-03-22T12:59:28.219Z,98547.40
2023-03-22T13:02:18.507Z,98546.20
2023-03-22T13:05:01.069Z,98543.00
2023-03-22T13:07:58.995Z,98547.60
2023-03-22T13:11:05.313Z,98543.20
2023-03-22T13:13:50.003Z,98541.60
2023-03-22T13:17:00.800Z,98539.60
2023-03-22T13:19:52.539Z,98532.40
2023-03-22T13:23:11.206Z,98527.60
2023-03-22T13:26:06.781Z,98524.20
2023-03-22T13:28:44.010Z,98521.00
2023-03-22T13:31:45.207Z,98518.00
2023-03-22T13:34:33.970Z,98518.60
2023-03-22T13:37:31.721Z,98514.60
2023-03-22T13:40:25.100Z,98513.80
2023-03-22T13:43:24.499Z,98507.20
2023-03-22T13:46:50.789Z,98502.00
2023-03-22T13:49:59.748Z,98498.80
2023-03-22T13:52:45.854Z,98499.00
2023-03-22T13:55:58.357Z,98495.00
2023-03-22T13:58:56.206Z,98488.20
2023-03-22T14:01:39.032Z,98487.60
2023-03-22T14:04:22.978Z,98484.40
2023-03-22T14:07:19.683Z,98480.00
2023-03-22T14:10:01.533Z,98477.60
2023-03-22T14:12:55.318Z,98470.40
2023-03-22T14:15:37.363Z,98465.00
2023-03-22T14:18:25.958Z,98460.20
2023-03-22T14:21:09.469Z,98457.80
